Time;durP1;ratioP1;P1;durP2;ratioP2;P2;SDS_P1;SDS_P2;PMS_P1;PMS_P2;Temp;Humidity;BMP_temperature;BMP_pressure;BME280_temperature;BME280_humidity;BME280_pressure;Samples;Min_cycle;Max_cycle;Signal;HPM_P1;HPM_P2
2023/05/14 00:03:58;;;;;;;24.37;15.77;;;6.70;99.90;;;;;;10454178;28;20246;-89
2023/05/14 00:09:01;;;;;;;24.03;15.57;;;6.60;99.90;;;;;;10440130;28;20289;-90
2023/05/14 00:14:04;;;;;;;39.27;17.23;;;6.50;99.90;;;;;;10413398;28;20258;-89
2023/05/14 00:19:06;;;;;;;32.00;18.40;;;6.40;99.90;;;;;;10413147;28;20235;-89
2023/05/14 00:24:09;;;;;;;28.30;18.67;;;6.40;99.90;;;;;;10410352;28;20309;-89
2023/05/14 00:29:11;;;;;;;34.77;18.37;;;6.30;99.90;;;;;;10409713;28;20261;-89
2023/05/14 00:34:14;;;;;;;31.00;17.07;;;6.10;99.90;;;;;;10411654;28;20524;-89
2023/05/14 00:39:17;;;;;;;34.63;17.67;;;6.10;99.90;;;;;;10436375;28;20257;-89
2023/05/14 00:44:19;;;;;;;30.87;18.80;;;6.00;99.90;;;;;;10411438;28;20728;-89
2023/05/14 00:49:22;;;;;;;23.57;17.77;;;6.20;99.90;;;;;;10417738;28;20214;-89
2023/05/14 00:54:26;;;;;;;33.60;18.00;;;6.00;99.90;;;;;;10454085;28;20295;-90
2023/05/14 00:59:28;;;;;;;41.63;19.47;;;5.90;99.90;;;;;;10468730;28;20199;-90
2023/05/14 01:04:31;;;;;;;27.80;17.80;;;5.80;99.90;;;;;;10463079;28;20276;-90
2023/05/14 01:09:53;;;;;;;31.93;17.77;;;5.80;99.90;;;;;;10445047;28;20265;-89
2023/05/14 01:15:03;;;;;;;28.40;17.73;;;5.70;99.90;;;;;;10477524;28;20242;-89
2023/05/14 01:20:07;;;;;;;27.90;18.00;;;5.60;99.90;;;;;;10476311;28;20229;-89
2023/05/14 01:25:09;;;;;;;27.67;17.57;;;5.60;99.90;;;;;;10456787;28;20262;-89
2023/05/14 01:30:24;;;;;;;29.77;17.37;;;5.50;99.90;;;;;;10424011;28;20622;-89
2023/05/14 01:35:29;;;;;;;27.43;17.60;;;5.50;99.90;;;;;;10440801;28;20211;-89
2023/05/14 01:40:34;;;;;;;24.43;17.07;;;5.40;99.90;;;;;;10423665;28;20228;-89
2023/05/14 01:45:37;;;;;;;28.53;16.80;;;5.40;99.90;;;;;;10424740;28;20269;-88
2023/05/14 01:50:39;;;;;;;25.70;17.10;;;5.30;99.90;;;;;;10474993;28;20261;-89
2023/05/14 01:55:42;;;;;;;25.00;16.37;;;5.30;99.90;;;;;;10464824;28;20240;-88
2023/05/14 02:00:44;;;;;;;26.50;17.40;;;5.20;99.90;;;;;;10450426;28;20260;-89
2023/05/14 02:05:47;;;;;;;25.50;17.13;;;5.10;99.90;;;;;;10404505;28;20615;-88
2023/05/14 02:10:49;;;;;;;23.17;16.57;;;5.10;99.90;;;;;;10365385;28;20207;-88
2023/05/14 02:15:52;;;;;;;24.00;16.70;;;5.10;99.90;;;;;;10387619;28;20199;-89
2023/05/14 02:20:56;;;;;;;25.20;17.63;;;5.00;99.90;;;;;;10422150;28;20233;-88
2023/05/14 02:25:58;;;;;;;21.97;17.10;;;5.00;99.90;;;;;;10459772;28;20578;-88
2023/05/14 02:31:01;;;;;;;26.43;16.80;;;5.00;99.90;;;;;;10451020;28;20300;-88
2023/05/14 02:36:04;;;;;;;21.60;17.13;;;5.00;99.90;;;;;;10476047;28;20264;-89
2023/05/14 02:41:07;;;;;;;25.80;16.80;;;5.00;99.90;;;;;;10441143;28;20243;-90
2023/05/14 02:46:09;;;;;;;21.97;16.23;;;4.90;99.90;;;;;;10464955;28;20579;-88
2023/05/14 02:51:12;;;;;;;20.93;17.40;;;4.90;99.90;;;;;;10482347;28;20228;-89
2023/05/14 02:56:15;;;;;;;27.73;17.03;;;4.90;99.90;;;;;;10473180;28;20237;-88
2023/05/14 03:01:17;;;;;;;21.63;16.50;;;5.00;99.90;;;;;;10438586;28;20199;-88
2023/05/14 03:06:21;;;;;;;21.07;17.20;;;5.10;99.90;;;;;;10449783;28;20209;-88
2023/05/14 03:11:23;;;;;;;24.83;18.90;;;5.20;99.90;;;;;;10436765;28;20575;-88
2023/05/14 03:16:26;;;;;;;29.37;17.83;;;5.30;99.90;;;;;;10433640;28;20208;-88
2023/05/14 03:21:30;;;;;;;28.57;18.90;;;5.40;99.90;;;;;;10444741;28;20210;-88
2023/05/14 03:26:32;;;;;;;28.30;18.40;;;5.40;99.90;;;;;;10447016;28;20207;-88
2023/05/14 03:31:35;;;;;;;29.53;18.43;;;5.40;99.90;;;;;;10445515;28;20276;-88
2023/05/14 03:36:38;;;;;;;22.87;17.63;;;5.50;99.90;;;;;;10445817;28;20261;-87
2023/05/14 03:41:41;;;;;;;21.40;16.30;;;5.60;99.90;;;;;;10447120;28;20261;-86
2023/05/14 03:46:43;;;;;;;24.07;17.57;;;5.80;99.90;;;;;;10481453;28;20237;-89
2023/05/14 03:51:46;;;;;;;24.93;17.50;;;6.00;99.90;;;;;;10483394;28;20211;-89
2023/05/14 03:56:48;;;;;;;21.60;17.80;;;6.40;99.90;;;;;;10451538;28;20191;-88
2023/05/14 04:01:51;;;;;;;24.40;17.10;;;6.50;99.90;;;;;;10467823;28;20195;-89
2023/05/14 04:06:54;;;;;;;26.27;17.87;;;6.60;99.90;;;;;;10499841;28;20183;-88
2023/05/14 04:11:56;;;;;;;22.53;17.57;;;6.70;99.90;;;;;;10450692;28;20228;-89
2023/05/14 04:16:59;;;;;;;23.80;16.30;;;6.90;99.90;;;;;;10500434;28;20210;-89
2023/05/14 04:22:02;;;;;;;25.27;16.43;;;7.10;99.90;;;;;;10476571;28;20236;-89
2023/05/14 04:27:05;;;;;;;28.37;16.87;;;7.20;99.90;;;;;;10508182;28;20198;-88
2023/05/14 04:32:08;;;;;;;28.40;16.70;;;7.40;99.90;;;;;;10490706;28;20234;-89
2023/05/14 04:37:10;;;;;;;21.80;16.90;;;7.70;99.90;;;;;;10480831;28;20187;-89
2023/05/14 04:42:13;;;;;;;20.17;15.87;;;7.90;99.90;;;;;;10507266;28;20219;-89
2023/05/14 04:47:15;;;;;;;19.70;15.73;;;8.10;99.90;;;;;;10488563;28;20176;-89
2023/05/14 04:52:18;;;;;;;24.57;16.10;;;8.30;99.90;;;;;;10466560;28;20208;-89
2023/05/14 04:57:21;;;;;;;20.33;16.77;;;8.60;99.90;;;;;;10483546;28;20187;-89
2023/05/14 05:02:23;;;;;;;22.47;17.50;;;8.80;99.90;;;;;;10487316;28;20180;-89
2023/05/14 05:07:26;;;;;;;23.83;17.27;;;9.10;99.90;;;;;;10465802;28;20176;-89
2023/05/14 05:12:29;;;;;;;22.27;16.90;;;9.30;99.90;;;;;;10497859;28;20317;-89
2023/05/14 05:17:31;;;;;;;25.37;16.27;;;9.60;99.90;;;;;;10465630;28;20179;-88
2023/05/14 05:22:35;;;;;;;20.13;15.40;;;10.00;99.90;;;;;;10463688;28;20191;-90
2023/05/14 05:27:38;;;;;;;20.20;15.90;;;10.50;99.90;;;;;;10464664;28;20218;-89
2023/05/14 05:32:40;;;;;;;22.03;16.57;;;10.90;99.90;;;;;;10464011;28;20238;-88
2023/05/14 05:37:44;;;;;;;18.50;14.70;;;11.30;99.90;;;;;;10446736;28;20210;-89
2023/05/14 05:42:46;;;;;;;22.17;15.47;;;11.70;99.90;;;;;;10451682;28;20248;-89
2023/05/14 05:47:49;;;;;;;26.43;17.30;;;12.10;99.90;;;;;;10431400;28;20184;-89
2023/05/14 05:52:52;;;;;;;19.23;15.57;;;12.50;99.90;;;;;;10448855;28;20210;-90
2023/05/14 05:57:55;;;;;;;19.93;16.17;;;12.80;99.90;;;;;;10458553;28;20176;-89
2023/05/14 06:02:57;;;;;;;22.57;16.17;;;13.10;99.90;;;;;;10460100;28;20206;-89
2023/05/14 06:08:00;;;;;;;19.50;16.07;;;13.30;99.90;;;;;;10461392;28;20210;-90
2023/05/14 06:13:02;;;;;;;23.17;18.47;;;13.50;99.90;;;;;;10462296;28;20218;-89
2023/05/14 06:18:07;;;;;;;23.27;17.23;;;13.60;99.90;;;;;;10461770;28;20200;-89
2023/05/14 06:23:11;;;;;;;27.67;16.70;;;13.80;99.90;;;;;;10437160;28;20218;-90
2023/05/14 06:28:13;;;;;;;22.67;17.83;;;14.00;99.90;;;;;;10419132;28;20204;-89
2023/05/14 06:33:16;;;;;;;37.97;18.07;;;14.20;99.90;;;;;;10417488;28;20642;-89
2023/05/14 06:38:21;;;;;;;25.80;17.73;;;14.50;99.90;;;;;;10420183;28;20234;-89
2023/05/14 06:43:24;;;;;;;25.23;16.13;;;14.90;99.90;;;;;;10416114;28;20285;-88
2023/05/14 06:48:28;;;;;;;22.83;15.77;;;15.30;98.40;;;;;;10414260;28;20207;-89
2023/05/14 06:53:30;;;;;;;25.73;16.40;;;15.70;96.60;;;;;;10414974;28;20222;-88
2023/05/14 06:58:33;;;;;;;24.73;14.80;;;15.90;96.10;;;;;;10422235;28;20199;-89
2023/05/14 07:03:36;;;;;;;18.30;14.10;;;16.10;94.10;;;;;;10455068;28;20210;-87
2023/05/14 07:08:39;;;;;;;19.53;13.37;;;16.10;94.40;;;;;;10420625;28;20204;-89
2023/05/14 07:13:42;;;;;;;19.90;13.13;;;16.30;92.10;;;;;;10422280;28;20629;-88
2023/05/14 07:18:45;;;;;;;17.23;12.80;;;16.40;93.20;;;;;;10419436;28;20203;-89
2023/05/14 07:40:21;;;;;;;14.30;10.03;;;16.80;84.30;;;;;;10676989;23;10001939;-88
2023/05/14 07:45:24;;;;;;;15.73;12.47;;;17.20;84.70;;;;;;10340842;28;20270;-89
2023/05/14 07:50:26;;;;;;;15.60;10.90;;;17.50;84.00;;;;;;10335982;28;20213;-88
2023/05/14 07:55:29;;;;;;;18.57;11.53;;;17.70;80.70;;;;;;10351446;28;20229;-88
2023/05/14 08:00:31;;;;;;;11.23;9.23;;;17.90;78.20;;;;;;10358865;28;20210;-87
2023/05/14 08:05:34;;;;;;;12.43;8.57;;;18.10;74.60;;;;;;10338465;28;20185;-89
2023/05/14 08:10:37;;;;;;;12.43;9.77;;;18.40;68.30;;;;;;10347249;28;20201;-91
2023/05/14 08:15:39;;;;;;;10.67;8.87;;;18.70;70.40;;;;;;10329784;28;20229;-89
2023/05/14 08:20:42;;;;;;;10.63;7.90;;;18.90;61.20;;;;;;10318290;28;20236;-89
2023/05/14 08:25:45;;;;;;;7.03;5.23;;;19.00;55.70;;;;;;10323720;28;20209;-90
2023/05/14 08:30:47;;;;;;;6.57;5.90;;;19.20;49.50;;;;;;10326992;28;20201;-90
2023/05/14 08:35:52;;;;;;;11.93;6.30;;;19.30;45.50;;;;;;10326618;28;20725;-89
2023/05/14 08:40:59;;;;;;;12.53;8.97;;;19.40;45.60;;;;;;10327732;28;20311;-90
2023/05/14 08:46:04;;;;;;;10.95;7.78;;;19.60;42.20;;;;;;10285980;28;20213;-90
2023/05/14 08:51:08;;;;;;;8.15;4.82;;;19.70;41.20;;;;;;10335651;28;20209;-89
2023/05/14 08:56:11;;;;;;;7.27;4.57;;;19.80;37.00;;;;;;10332750;28;20228;-89
2023/05/14 09:01:14;;;;;;;8.90;6.80;;;19.90;34.30;;;;;;10327123;28;20244;-89
2023/05/14 09:06:18;;;;;;;8.87;6.07;;;19.90;33.70;;;;;;10335847;28;20228;-89
2023/05/14 09:11:20;;;;;;;6.50;5.85;;;20.00;33.40;;;;;;10329844;28;20205;-89
2023/05/14 09:16:24;;;;;;;11.40;9.33;;;20.20;32.40;;;;;;10294596;28;20621;-89
2023/05/14 09:21:27;;;;;;;6.23;4.73;;;20.20;33.90;;;;;;10330887;28;20202;-90
2023/05/14 09:26:32;;;;;;;11.07;10.07;;;20.40;29.60;;;;;;10322577;28;20616;-88
2023/05/14 09:31:36;;;;;;;9.30;4.55;;;20.50;30.20;;;;;;10336861;28;20205;-87
2023/05/14 09:36:38;;;;;;;11.30;3.85;;;20.60;28.20;;;;;;10308699;28;20221;-90
2023/05/14 09:41:41;;;;;;;6.03;3.90;;;20.80;26.80;;;;;;10246188;28;20277;-89
2023/05/14 09:46:44;;;;;;;9.30;8.30;;;21.10;25.30;;;;;;10265305;28;20210;-90
2023/05/14 09:51:50;;;;;;;12.43;9.37;;;21.30;24.80;;;;;;10277182;28;20596;-90
2023/05/14 09:56:53;;;;;;;6.03;5.33;;;21.30;27.00;;;;;;10293796;28;20226;-89
2023/05/14 10:01:58;;;;;;;8.98;8.07;;;21.40;25.90;;;;;;10293127;28;20210;-93
2023/05/14 10:07:01;;;;;;;13.88;6.60;;;21.50;26.70;;;;;;10294591;28;20209;-90
2023/05/14 10:12:04;;;;;;;8.47;7.37;;;21.50;21.50;;;;;;10292183;28;20221;-91
2023/05/14 10:17:16;;;;;;;5.85;5.13;;;21.40;22.10;;;;;;10250986;28;20229;-90
2023/05/14 10:22:22;;;;;;;13.55;8.07;;;21.40;22.20;;;;;;10281918;28;20261;-90
2023/05/14 10:27:26;;;;;;;14.60;5.83;;;21.50;22.50;;;;;;10284520;28;20281;-90
2023/05/14 10:32:31;;;;;;;10.60;7.20;;;21.50;21.30;;;;;;10294732;28;20213;-90
2023/05/14 10:37:34;;;;;;;8.73;7.82;;;21.70;22.60;;;;;;10261265;28;20206;-91
2023/05/14 10:42:42;;;;;;;12.32;11.07;;;21.60;22.20;;;;;;10317603;28;20237;-89
2023/05/14 10:47:46;;;;;;;7.88;7.07;;;21.60;23.70;;;;;;10279641;28;20224;-89
2023/05/14 10:52:50;;;;;;;9.43;8.07;;;21.50;22.40;;;;;;10310756;28;20256;-89
2023/05/14 10:57:52;;;;;;;7.93;6.10;;;21.50;22.40;;;;;;10326874;28;20252;-88
2023/05/14 11:02:56;;;;;;;11.18;5.82;;;21.50;22.60;;;;;;10322005;28;20236;-87
2023/05/14 11:08:01;;;;;;;5.30;4.50;;;21.40;21.90;;;;;;10290360;28;20205;-88
2023/05/14 11:13:04;;;;;;;10.93;4.93;;;21.40;18.80;;;;;;10292301;28;20308;-88
2023/05/14 11:18:09;;;;;;;5.22;3.85;;;21.50;18.40;;;;;;10291135;28;20749;-89
2023/05/14 11:23:12;;;;;;;6.18;4.60;;;21.60;18.40;;;;;;10299189;28;20239;-87
2023/05/14 11:28:14;;;;;;;7.82;4.50;;;21.80;19.60;;;;;;10289302;28;20249;-88
2023/05/14 11:33:18;;;;;;;6.63;5.40;;;22.00;20.20;;;;;;10268067;28;20261;-88
2023/05/14 11:38:21;;;;;;;8.10;5.10;;;21.90;20.30;;;;;;10285179;28;20304;-88
2023/05/14 11:43:28;;;;;;;8.05;6.68;;;22.10;20.80;;;;;;10275383;28;20420;-88
2023/05/14 11:48:31;;;;;;;7.68;5.40;;;21.90;19.80;;;;;;10293932;28;20241;-88
2023/05/14 11:53:34;;;;;;;6.72;5.65;;;21.60;17.40;;;;;;10292413;28;20312;-90
2023/05/14 11:58:36;;;;;;;6.22;5.63;;;21.40;18.60;;;;;;10289161;28;20221;-87
2023/05/14 12:03:39;;;;;;;7.93;5.88;;;21.20;19.60;;;;;;10315112;28;20287;-87
2023/05/14 12:08:42;;;;;;;6.57;5.38;;;21.00;20.00;;;;;;10332239;28;20307;-88
2023/05/14 12:13:44;;;;;;;6.53;5.85;;;20.80;18.50;;;;;;10331975;28;20660;-88
2023/05/14 12:18:47;;;;;;;9.05;4.50;;;20.70;20.20;;;;;;10331781;28;20232;-88
2023/05/14 12:23:57;;;;;;;13.67;8.57;;;20.80;20.80;;;;;;10313656;28;20249;-87
2023/05/14 12:29:01;;;;;;;20.77;15.40;;;20.90;20.30;;;;;;10331588;28;20237;-87
2023/05/14 12:34:04;;;;;;;8.57;6.60;;;21.10;20.00;;;;;;10331357;28;20303;-88
2023/05/14 12:39:09;;;;;;;9.27;6.15;;;21.30;20.60;;;;;;10312954;28;20272;-87
2023/05/14 12:44:11;;;;;;;5.50;5.00;;;21.30;20.30;;;;;;10330239;28;20244;-88
2023/05/14 12:49:14;;;;;;;8.75;5.72;;;21.50;20.70;;;;;;10330562;28;20232;-88
2023/05/14 12:54:16;;;;;;;9.30;5.90;;;21.40;20.10;;;;;;10329088;28;20318;-88
2023/05/14 12:59:19;;;;;;;12.70;7.20;;;21.40;20.50;;;;;;10318052;28;20610;-88
2023/05/14 13:04:21;;;;;;;8.55;7.75;;;21.40;19.90;;;;;;10289318;28;20241;-87
2023/05/14 13:09:24;;;;;;;8.20;4.72;;;21.60;20.00;;;;;;10289684;28;20265;-88
2023/05/14 13:14:26;;;;;;;9.25;8.32;;;21.80;18.80;;;;;;10289958;28;20343;-89
2023/05/14 13:19:29;;;;;;;7.82;5.15;;;21.90;18.90;;;;;;10288463;28;20309;-88
2023/05/14 13:24:31;;;;;;;10.52;6.00;;;22.10;18.70;;;;;;10288486;28;20241;-88
2023/05/14 13:29:34;;;;;;;12.48;5.20;;;22.30;17.30;;;;;;10288439;28;20638;-91
2023/05/14 13:34:37;;;;;;;8.00;5.85;;;22.20;21.30;;;;;;10326999;28;20279;-89
2023/05/14 13:39:39;;;;;;;6.70;6.10;;;22.00;20.40;;;;;;10298883;28;20264;-89
2023/05/14 13:44:42;;;;;;;6.30;5.43;;;22.00;20.40;;;;;;10288725;28;20236;-90
2023/05/14 13:49:44;;;;;;;8.18;5.15;;;21.90;19.50;;;;;;10316084;28;20236;-89
2023/05/14 13:54:47;;;;;;;11.10;7.10;;;22.20;18.80;;;;;;10319019;28;20292;-89
2023/05/14 13:59:50;;;;;;;8.20;4.78;;;22.30;20.50;;;;;;10286861;28;20237;-90
2023/05/14 14:04:54;;;;;;;12.00;7.78;;;22.40;19.20;;;;;;10311686;28;20209;-89
2023/05/14 14:09:56;;;;;;;14.20;4.82;;;22.30;20.30;;;;;;10292954;28;20237;-89
2023/05/14 14:14:59;;;;;;;10.40;9.10;;;22.30;19.00;;;;;;10291527;28;20314;-89
2023/05/14 14:20:04;;;;;;;8.18;7.30;;;22.20;21.30;;;;;;10327114;28;20225;-89
2023/05/14 14:25:07;;;;;;;9.45;7.00;;;22.10;21.10;;;;;;10303476;28;20295;-89
2023/05/14 14:30:16;;;;;;;7.30;6.47;;;22.20;19.60;;;;;;10286916;28;20284;-89
2023/05/14 14:35:19;;;;;;;8.10;6.57;;;22.20;19.80;;;;;;10269773;28;20292;-89
2023/05/14 14:40:22;;;;;;;5.70;5.10;;;22.20;20.20;;;;;;10316159;28;20260;-89
2023/05/14 14:45:25;;;;;;;10.10;9.10;;;22.30;20.20;;;;;;10321897;28;20248;-90
2023/05/14 14:50:27;;;;;;;8.02;6.70;;;22.50;21.10;;;;;;10324521;28;20228;-89
2023/05/14 14:55:30;;;;;;;9.27;7.82;;;22.50;20.50;;;;;;10310663;28;20253;-89
2023/05/14 15:00:33;;;;;;;6.97;6.32;;;22.40;20.40;;;;;;10268594;28;20611;-89
2023/05/14 15:05:35;;;;;;;8.65;7.10;;;22.30;19.70;;;;;;10285924;28;20295;-90
2023/05/14 15:10:38;;;;;;;9.93;7.93;;;22.40;19.60;;;;;;9940127;28;9999685;-89
2023/05/14 15:15:40;;;;;;;10.20;8.85;;;22.20;20.90;;;;;;10325930;28;20260;-90
2023/05/14 15:20:43;;;;;;;10.45;9.05;;;21.90;20.50;;;;;;10329681;28;20237;-88
2023/05/14 15:25:45;;;;;;;4.28;3.78;;;21.70;22.30;;;;;;10316102;28;20245;-88
2023/05/14 15:30:48;;;;;;;12.95;9.13;;;21.50;21.80;;;;;;10289605;28;20291;-88
2023/05/14 15:35:51;;;;;;;12.13;9.60;;;21.40;22.80;;;;;;10289373;28;20248;-88
2023/05/14 15:40:53;;;;;;;6.65;6.05;;;21.30;24.00;;;;;;10288615;28;20323;-88
2023/05/14 15:45:56;;;;;;;6.20;5.38;;;21.10;22.50;;;;;;10295099;28;20254;-88
2023/05/14 15:50:58;;;;;;;5.88;5.25;;;21.00;22.90;;;;;;10320784;28;20236;-89
2023/05/14 15:56:01;;;;;;;4.30;3.90;;;21.00;23.60;;;;;;10312182;28;20260;-89
2023/05/14 16:01:04;;;;;;;9.02;8.13;;;21.00;22.30;;;;;;10314725;28;20279;-89
2023/05/14 16:06:07;;;;;;;6.93;6.25;;;21.00;23.30;;;;;;10309595;28;20232;-90
2023/05/14 16:11:09;;;;;;;4.57;3.53;;;20.80;23.00;;;;;;10275672;28;20748;-89
2023/05/14 16:16:12;;;;;;;5.95;5.03;;;20.60;23.20;;;;;;10294400;28;20719;-87
2023/05/14 16:21:14;;;;;;;8.55;4.75;;;20.40;24.30;;;;;;10331502;28;20236;-89
2023/05/14 16:26:17;;;;;;;12.75;4.60;;;20.20;24.70;;;;;;10293779;28;20320;-89
2023/05/14 16:31:19;;;;;;;12.70;5.03;;;20.30;25.30;;;;;;10290505;28;20225;-89
2023/05/14 16:36:23;;;;;;;8.43;3.80;;;20.50;27.20;;;;;;10273792;28;20265;-89
2023/05/14 16:41:25;;;;;;;16.63;4.57;;;20.60;32.30;;;;;;10272997;28;20237;-89
2023/05/14 16:46:29;;;;;;;27.00;6.68;;;20.80;34.10;;;;;;10322213;28;20649;-88
2023/05/14 16:51:32;;;;;;;8.13;3.50;;;20.70;29.60;;;;;;10329839;28;20232;-89
2023/05/14 16:56:35;;;;;;;9.48;3.30;;;20.60;29.40;;;;;;10296932;28;20253;-89
2023/05/14 17:01:38;;;;;;;2.30;1.90;;;20.50;30.90;;;;;;10306214;28;20233;-89
2023/05/14 17:06:40;;;;;;;4.88;2.45;;;20.30;31.50;;;;;;10314239;28;20237;-88
2023/05/14 17:11:43;;;;;;;3.15;2.05;;;20.00;28.20;;;;;;10312066;28;20212;-89
2023/05/14 17:16:45;;;;;;;10.15;3.20;;;19.80;29.80;;;;;;10311152;28;20252;-87
2023/05/14 17:21:48;;;;;;;7.00;2.40;;;19.60;31.00;;;;;;10314494;28;20228;-89
2023/05/14 17:26:50;;;;;;;4.55;3.08;;;19.40;32.10;;;;;;10308006;28;20610;-89
2023/05/14 17:31:53;;;;;;;7.68;3.60;;;19.20;29.50;;;;;;10309686;28;20244;-89
2023/05/14 17:36:57;;;;;;;4.93;2.70;;;19.00;34.10;;;;;;10279274;28;20304;-89
2023/05/14 17:41:59;;;;;;;7.55;4.10;;;18.90;32.10;;;;;;10301544;28;20292;-89
2023/05/14 17:47:03;;;;;;;6.20;2.50;;;18.70;32.70;;;;;;10282803;28;20353;-90
2023/05/14 17:52:06;;;;;;;8.07;2.47;;;18.50;32.00;;;;;;10314382;28;20287;-89
2023/05/14 17:57:08;;;;;;;7.22;2.60;;;18.30;33.60;;;;;;10289361;28;20699;-89
2023/05/14 18:02:11;;;;;;;5.65;2.60;;;18.10;35.60;;;;;;10308412;28;20220;-89
2023/05/14 18:07:13;;;;;;;7.10;2.88;;;18.00;36.90;;;;;;10310302;28;20275;-89
2023/05/14 18:12:16;;;;;;;3.22;2.60;;;17.80;36.70;;;;;;10310212;28;20287;-87
2023/05/14 18:17:18;;;;;;;5.88;3.22;;;17.70;37.30;;;;;;10314376;28;20257;-87
2023/05/14 18:22:21;;;;;;;4.80;3.25;;;17.50;40.70;;;;;;10287382;28;20253;-88
2023/05/14 18:27:23;;;;;;;4.13;3.08;;;17.30;40.00;;;;;;10307558;28;20241;-88
2023/05/14 18:32:26;;;;;;;4.07;3.10;;;17.00;41.70;;;;;;10308000;28;20245;-87
2023/05/14 18:37:28;;;;;;;3.90;3.10;;;16.70;41.90;;;;;;10315444;28;20252;-87
2023/05/14 18:42:32;;;;;;;53.88;5.68;;;16.50;44.90;;;;;;10312534;28;20301;-88
2023/05/14 18:47:34;;;;;;;28.57;4.50;;;16.20;48.40;;;;;;10288137;28;20237;-88
2023/05/14 18:52:37;;;;;;;6.53;3.17;;;16.00;52.20;;;;;;10304449;28;20240;-91
2023/05/14 18:57:40;;;;;;;5.38;3.47;;;15.70;55.10;;;;;;10324301;28;20252;-90
2023/05/14 19:02:42;;;;;;;4.00;2.90;;;15.50;60.30;;;;;;10303675;28;20221;-87
2023/05/14 19:07:46;;;;;;;4.60;2.70;;;15.20;62.70;;;;;;10282010;28;20276;-85
2023/05/14 19:12:49;;;;;;;7.10;4.07;;;15.00;76.80;;;;;;10314914;28;20657;-85
2023/05/14 19:17:52;;;;;;;7.37;3.60;;;14.80;87.70;;;;;;10321307;28;20282;-84
2023/05/14 19:22:55;;;;;;;7.00;3.93;;;14.60;91.60;;;;;;10275851;28;20202;-89
2023/05/14 19:28:00;;;;;;;16.80;5.03;;;14.50;93.10;;;;;;10289580;28;20240;-88
2023/05/14 19:33:03;;;;;;;6.77;4.30;;;14.50;94.60;;;;;;10305979;28;20244;-88
2023/05/14 19:38:05;;;;;;;10.47;5.10;;;14.60;95.70;;;;;;10333263;28;20220;-91
2023/05/14 19:43:09;;;;;;;4.97;4.40;;;14.60;97.10;;;;;;10297147;28;20693;-88
2023/05/14 19:48:12;;;;;;;6.83;5.20;;;14.70;99.90;;;;;;10301107;28;20271;-88
2023/05/14 19:53:15;;;;;;;10.20;6.60;;;14.40;97.80;;;;;;10286226;28;20236;-88
2023/05/14 19:58:17;;;;;;;10.73;5.07;;;14.20;99.20;;;;;;10298772;28;20669;-89
2023/05/14 20:03:24;;;;;;;6.20;4.65;;;14.40;99.90;;;;;;10273520;28;20233;-89
2023/05/14 20:08:27;;;;;;;14.15;6.65;;;14.60;99.90;;;;;;10303431;28;20304;-89
2023/05/14 20:13:35;;;;;;;16.20;7.60;;;14.80;99.90;;;;;;10330837;28;20248;-90
2023/05/14 20:18:37;;;;;;;10.15;5.97;;;14.60;99.90;;;;;;10309384;28;20721;-95
2023/05/14 20:23:40;;;;;;;5.90;4.80;;;14.40;99.90;;;;;;10315733;28;20209;-94
2023/05/14 20:28:42;;;;;;;9.80;5.10;;;14.40;99.90;;;;;;10329684;28;20624;-93
2023/05/14 20:33:45;;;;;;;9.18;5.40;;;14.40;99.90;;;;;;10311997;28;20200;-94
2023/05/14 20:38:48;;;;;;;8.20;5.55;;;14.40;99.90;;;;;;10326107;28;20272;-91
2023/05/14 20:43:50;;;;;;;9.97;6.60;;;14.50;99.90;;;;;;10294069;28;20570;-94
2023/05/14 20:48:54;;;;;;;5.47;4.60;;;14.20;99.90;;;;;;10332426;28;20240;-95
2023/05/14 20:53:57;;;;;;;7.47;5.45;;;14.30;99.90;;;;;;10333215;28;20208;-93
2023/05/14 20:58:59;;;;;;;7.90;5.45;;;14.40;99.90;;;;;;10326461;28;20642;-94
2023/05/14 21:04:02;;;;;;;7.20;4.57;;;14.40;99.90;;;;;;10292117;28;20237;-92
2023/05/14 21:09:05;;;;;;;8.52;4.82;;;14.50;99.90;;;;;;10300712;28;20245;-92
2023/05/14 21:14:07;;;;;;;7.40;5.88;;;14.60;99.90;;;;;;10294593;28;20352;-93
2023/05/14 21:19:10;;;;;;;5.70;4.70;;;14.60;99.90;;;;;;10329828;28;20315;-92
2023/05/14 21:24:15;;;;;;;7.28;5.38;;;14.70;99.90;;;;;;10299057;28;20702;-91
2023/05/14 21:29:18;;;;;;;4.85;3.95;;;14.70;99.90;;;;;;10309899;28;20638;-92
2023/05/14 21:34:21;;;;;;;7.07;6.30;;;14.70;99.90;;;;;;10314151;28;20204;-92
2023/05/14 21:39:23;;;;;;;4.93;4.40;;;14.70;99.90;;;;;;10313994;28;20317;-93
2023/05/14 21:44:26;;;;;;;5.43;4.80;;;14.60;99.90;;;;;;10320159;28;20205;-93
2023/05/14 21:49:28;;;;;;;6.53;4.78;;;14.70;99.90;;;;;;10311234;28;20593;-93
2023/05/14 21:54:31;;;;;;;4.68;4.28;;;14.60;99.90;;;;;;10282106;28;20272;-94
2023/05/14 21:59:35;;;;;;;6.50;5.80;;;14.70;99.90;;;;;;10301020;28;20237;-93
2023/05/14 22:04:38;;;;;;;5.10;4.60;;;14.60;99.90;;;;;;10307925;28;20201;-93
2023/05/14 22:09:40;;;;;;;4.55;3.72;;;14.70;99.90;;;;;;10310868;28;20205;-93
2023/05/14 22:14:43;;;;;;;7.18;5.00;;;14.60;99.90;;;;;;10327262;28;20213;-93
2023/05/14 22:19:45;;;;;;;4.82;4.00;;;14.60;99.90;;;;;;10315919;28;20714;-93
2023/05/14 22:24:48;;;;;;;7.70;4.97;;;14.50;99.90;;;;;;10326002;28;20209;-93
2023/05/14 22:29:50;;;;;;;6.00;4.95;;;14.40;99.90;;;;;;10320127;28;20237;-94
2023/05/14 22:34:53;;;;;;;6.80;5.53;;;14.30;99.90;;;;;;10317290;28;20257;-93
2023/05/14 22:39:56;;;;;;;9.80;6.10;;;14.20;99.90;;;;;;10314122;28;20260;-93
2023/05/14 22:44:58;;;;;;;6.97;4.63;;;14.20;99.90;;;;;;10304766;28;20614;-93
2023/05/14 22:50:01;;;;;;;7.82;4.68;;;14.20;99.90;;;;;;10318731;28;20210;-95
2023/05/14 22:55:04;;;;;;;7.20;4.90;;;14.40;99.90;;;;;;10305404;28;20336;-95
2023/05/14 23:00:07;;;;;;;7.23;5.53;;;14.50;99.90;;;;;;10333336;28;20224;-95
2023/05/14 23:05:10;;;;;;;4.63;4.07;;;14.50;99.90;;;;;;10344617;28;20236;-94
2023/05/14 23:10:13;;;;;;;5.67;4.87;;;14.50;99.90;;;;;;10310127;28;20206;-95
2023/05/14 23:15:16;;;;;;;6.20;5.50;;;14.50;99.90;;;;;;10304013;28;20566;-95
2023/05/14 23:20:18;;;;;;;5.03;4.20;;;14.50;99.90;;;;;;10311916;28;20280;-94
2023/05/14 23:25:21;;;;;;;5.10;4.60;;;14.60;99.90;;;;;;10326186;28;20209;-95
2023/05/14 23:30:23;;;;;;;5.90;5.10;;;14.60;99.90;;;;;;10300100;28;20213;-94
2023/05/14 23:35:26;;;;;;;8.70;5.10;;;14.50;99.90;;;;;;10320601;28;20264;-95
2023/05/14 23:40:29;;;;;;;6.05;5.35;;;14.60;99.90;;;;;;10300630;28;20242;-95
2023/05/14 23:45:31;;;;;;;6.15;5.55;;;14.60;99.90;;;;;;10300132;28;20201;-96
2023/05/14 23:50:34;;;;;;;5.73;4.73;;;14.60;99.90;;;;;;10328469;28;20913;-96
2023/05/14 23:55:36;;;;;;;5.63;5.10;;;14.60;99.90;;;;;;10318041;28;20580;-95
